CPX364 Details

Departure: Fort Worth Alliance Airport (KAFW)
Arrival: March Air Reserve Base (KRIV)
Route: SWABR5 DOSXX INK V94 TFD J169 TRM ARKOE1


Current Weather Information
KAFW 250953Z 17013KT 10SM OVC300 23/20 A2999 RMK AO2 SLP143 T02280200
KRIV 250958Z AUTO 00000KT 10SM CLR 08/08 A2989 RMK AO2 SLP115 T00800080